Time;durP1;ratioP1;P1;durP2;ratioP2;P2;SDS_P1;SDS_P2;PMS_P1;PMS_P2;Temp;Humidity;BMP_temperature;BMP_pressure;BME280_temperature;BME280_humidity;BME280_pressure;Samples;Min_cycle;Max_cycle;Signal;HPM_P1;HPM_P2
2021/12/24 00:02:14;;;;;;;43.80;22.93;;;4.40;99.90;;;;;;4956384;28;20477;-63
2021/12/24 00:04:42;;;;;;;43.40;22.77;;;4.30;99.90;;;;;;4974007;28;20560;-63
2021/12/24 00:07:12;;;;;;;46.47;22.97;;;4.30;99.90;;;;;;4974837;28;20504;-63
2021/12/24 00:09:40;;;;;;;42.50;22.67;;;4.30;99.90;;;;;;4975006;28;20462;-63
2021/12/24 00:12:14;;;;;;;39.77;20.93;;;4.40;99.90;;;;;;4975057;28;20505;-63
2021/12/24 00:14:48;;;;;;;42.17;22.93;;;4.50;99.90;;;;;;4974985;28;20487;-63
2021/12/24 00:17:22;;;;;;;43.03;22.53;;;4.40;99.90;;;;;;4974771;28;20516;-63
2021/12/24 00:20:05;;;;;;;42.23;21.77;;;4.40;99.90;;;;;;4974972;28;20552;-63
2021/12/24 00:23:09;;;;;;;40.33;22.13;;;4.40;99.90;;;;;;4974477;28;21001;-63
2021/12/24 00:36:52;;;;;;;36.37;19.97;;;4.50;99.90;;;;;;4091481;28;10001244;-63
2021/12/24 00:39:22;;;;;;;37.63;20.30;;;4.50;99.90;;;;;;4955480;28;20577;-63
2021/12/24 00:41:50;;;;;;;37.00;20.73;;;4.50;99.90;;;;;;4971868;28;20508;-63
2021/12/24 00:44:18;;;;;;;29.47;18.07;;;4.50;99.90;;;;;;4973200;28;20490;-63
2021/12/24 00:46:46;;;;;;;33.27;18.47;;;4.50;99.90;;;;;;4973022;28;20532;-63
2021/12/24 00:49:14;;;;;;;31.47;18.77;;;4.50;99.90;;;;;;4974782;28;20484;-63
2021/12/24 00:52:06;;;;;;;30.17;17.37;;;4.50;99.90;;;;;;4974475;28;20988;-63
2021/12/24 00:57:22;;;;;;;27.07;17.57;;;4.60;99.90;;;;;;4973403;28;21008;-63
2021/12/24 00:59:50;;;;;;;27.83;17.43;;;4.50;99.90;;;;;;4966024;28;20484;-63
2021/12/24 01:02:18;;;;;;;24.10;16.73;;;4.60;99.90;;;;;;4972065;28;20485;-63
2021/12/24 01:04:46;;;;;;;28.10;17.57;;;4.60;99.90;;;;;;4972386;28;20470;-64
2021/12/24 01:07:15;;;;;;;28.00;17.77;;;4.50;99.90;;;;;;4973024;28;20532;-63
2021/12/24 01:09:45;;;;;;;30.87;17.40;;;4.50;99.90;;;;;;4972749;28;20476;-63
2021/12/24 01:12:13;;;;;;;28.70;17.67;;;4.50;99.90;;;;;;4974207;28;20477;-63
2021/12/24 01:14:43;;;;;;;28.03;17.27;;;4.50;99.90;;;;;;4974144;28;20978;-63
2021/12/24 01:17:20;;;;;;;26.13;18.00;;;4.60;99.90;;;;;;4972821;28;20518;-63
2021/12/24 01:19:51;;;;;;;26.73;16.23;;;4.60;99.90;;;;;;4973471;28;20544;-63
2021/12/24 01:23:04;;;;;;;28.43;17.67;;;4.60;99.90;;;;;;4972290;28;20542;-63
2021/12/24 01:25:33;;;;;;;27.57;17.53;;;4.60;99.90;;;;;;4973698;28;20481;-64
2021/12/24 01:28:33;;;;;;;27.63;17.13;;;4.60;99.90;;;;;;4972472;28;20472;-63
2021/12/24 01:39:51;;;;;;;24.33;15.60;;;4.70;99.90;;;;;;4953964;28;20863;-63
2021/12/24 01:42:42;;;;;;;24.83;15.80;;;4.70;99.90;;;;;;4955123;28;20513;-63
2021/12/24 01:45:20;;;;;;;29.27;17.37;;;4.60;99.90;;;;;;4972376;28;20483;-63
2021/12/24 01:47:50;;;;;;;23.77;15.50;;;4.60;99.90;;;;;;4971771;28;20488;-63
2021/12/24 01:50:21;;;;;;;26.40;16.17;;;4.90;99.90;;;;;;4972016;28;21077;-63
2021/12/24 01:52:51;;;;;;;24.87;15.57;;;4.90;99.90;;;;;;4966004;28;20490;-63
2021/12/24 01:55:20;;;;;;;24.10;16.17;;;4.90;99.90;;;;;;4954595;28;20478;-63
2021/12/24 01:57:51;;;;;;;24.03;16.87;;;4.80;99.90;;;;;;4956719;28;21020;-63
2021/12/24 02:00:21;;;;;;;24.83;15.77;;;4.90;99.90;;;;;;4971942;28;20487;-63
2021/12/24 02:02:50;;;;;;;26.57;16.97;;;5.00;99.90;;;;;;4971457;28;20504;-63
2021/12/24 02:05:19;;;;;;;26.70;17.73;;;4.90;99.90;;;;;;4973172;28;20491;-63
2021/12/24 02:07:48;;;;;;;25.07;17.23;;;5.00;99.90;;;;;;4972949;28;20969;-63
2021/12/24 02:10:18;;;;;;;25.40;16.93;;;4.90;99.90;;;;;;4971609;28;20489;-64
2021/12/24 02:12:47;;;;;;;22.57;15.00;;;4.90;99.90;;;;;;4972726;28;20484;-63
2021/12/24 02:15:27;;;;;;;24.77;16.67;;;4.90;99.90;;;;;;4970669;28;20532;-64
2021/12/24 02:18:16;;;;;;;25.03;16.20;;;4.90;99.90;;;;;;4964220;28;20477;-63
2021/12/24 02:29:15;;;;;;;24.60;16.37;;;5.00;99.90;;;;;;4975980;28;20512;-64
2021/12/24 02:31:44;;;;;;;26.57;16.67;;;5.10;99.90;;;;;;4971523;28;20479;-63
2021/12/24 02:34:30;;;;;;;25.07;15.60;;;5.00;99.90;;;;;;4118362;28;10001979;-63
2021/12/24 02:36:59;;;;;;;19.67;14.95;;;5.00;99.90;;;;;;2395767;28;10002087;-63
2021/12/24 02:39:28;;;;;;;24.13;15.90;;;5.00;99.90;;;;;;4969464;28;20711;-63
2021/12/24 02:41:57;;;;;;;22.97;15.87;;;5.10;99.90;;;;;;4971248;28;20484;-63
2021/12/24 02:44:26;;;;;;;23.90;15.40;;;5.10;99.90;;;;;;4970799;28;20514;-63
2021/12/24 02:47:06;;;;;;;21.43;15.17;;;5.00;99.90;;;;;;4972582;28;20539;-63
2021/12/24 02:55:11;;;;;;;21.67;14.77;;;5.00;99.90;;;;;;4972396;28;20989;-63
2021/12/24 02:57:40;;;;;;;21.77;14.03;;;5.00;99.90;;;;;;4970698;28;20470;-63
2021/12/24 03:00:15;;;;;;;23.27;14.80;;;5.00;99.90;;;;;;4970912;28;20470;-62
2021/12/24 03:02:45;;;;;;;22.77;14.50;;;5.10;99.90;;;;;;4970622;28;20480;-63
2021/12/24 03:05:16;;;;;;;19.93;14.13;;;5.10;99.90;;;;;;4972410;28;20487;-63
2021/12/24 03:07:47;;;;;;;21.23;14.03;;;5.10;99.90;;;;;;4960326;28;20470;-63
2021/12/24 03:10:21;;;;;;;22.07;14.77;;;5.10;99.90;;;;;;4967604;28;20477;-63
2021/12/24 03:12:52;;;;;;;22.33;15.33;;;5.20;99.90;;;;;;4970726;28;20473;-63
2021/12/24 03:15:25;;;;;;;23.57;16.33;;;5.10;99.90;;;;;;4970539;28;20481;-63
2021/12/24 03:17:59;;;;;;;23.67;16.23;;;5.10;99.90;;;;;;4970784;28;21128;-63
2021/12/24 03:20:32;;;;;;;24.03;17.13;;;5.00;99.90;;;;;;4971829;28;20988;-63
2021/12/24 03:23:09;;;;;;;23.47;15.23;;;5.20;99.90;;;;;;4956503;28;21060;-63
2021/12/24 03:25:38;;;;;;;28.13;16.93;;;5.20;99.90;;;;;;4971350;28;20480;-63
2021/12/24 03:28:07;;;;;;;25.17;17.30;;;5.30;99.90;;;;;;4971832;28;20466;-63
2021/12/24 03:30:35;;;;;;;27.53;17.13;;;5.30;99.90;;;;;;4970352;28;20485;-63
2021/12/24 03:33:03;;;;;;;27.13;16.97;;;5.20;99.90;;;;;;4970556;28;20478;-63
2021/12/24 03:35:32;;;;;;;28.00;17.17;;;5.30;99.90;;;;;;4970358;28;20490;-63
2021/12/24 03:38:00;;;;;;;28.03;18.13;;;5.30;99.90;;;;;;4970365;28;20541;-63
2021/12/24 03:40:30;;;;;;;26.87;16.60;;;5.20;99.90;;;;;;4970260;28;20523;-63
2021/12/24 03:42:58;;;;;;;28.70;17.17;;;5.20;99.90;;;;;;4971931;28;20496;-63
2021/12/24 03:45:30;;;;;;;24.03;15.97;;;5.20;99.90;;;;;;4967772;28;20576;-63
2021/12/24 03:48:03;;;;;;;24.70;15.20;;;5.30;99.90;;;;;;4966181;28;20873;-63
2021/12/24 03:50:46;;;;;;;27.27;16.87;;;5.40;99.90;;;;;;4971680;28;20496;-63
2021/12/24 03:56:02;;;;;;;26.90;16.63;;;5.20;99.90;;;;;;4970189;28;20474;-63
2021/12/24 03:58:32;;;;;;;26.77;16.73;;;5.20;99.90;;;;;;4970066;28;20481;-63
2021/12/24 04:01:18;;;;;;;25.87;16.00;;;5.20;99.90;;;;;;4971631;28;20512;-63
2021/12/24 04:04:10;;;;;;;25.67;15.07;;;5.20;99.90;;;;;;4961562;28;20486;-63
2021/12/24 04:06:57;;;;;;;22.37;14.77;;;5.10;99.90;;;;;;4971553;28;20476;-63
2021/12/24 04:09:52;;;;;;;21.13;13.93;;;5.20;99.90;;;;;;4952290;28;20839;-63
2021/12/24 04:12:40;;;;;;;23.53;14.33;;;5.30;99.90;;;;;;4956971;28;20577;-63
2021/12/24 04:15:09;;;;;;;19.27;12.80;;;5.30;99.90;;;;;;4970839;28;20473;-63
2021/12/24 04:17:40;;;;;;;20.50;13.57;;;5.30;99.90;;;;;;4961666;28;20473;-63
2021/12/24 04:25:40;;;;;;;20.43;12.70;;;5.20;99.90;;;;;;4971364;28;20474;-63
2021/12/24 04:28:10;;;;;;;17.77;12.37;;;5.20;99.90;;;;;;4971255;28;20496;-63
2021/12/24 04:30:44;;;;;;;16.13;11.83;;;5.20;99.90;;;;;;4971269;28;20472;-63
2021/12/24 04:33:19;;;;;;;15.33;11.97;;;5.20;99.90;;;;;;4947593;28;20571;-64
2021/12/24 04:35:59;;;;;;;15.52;11.65;;;5.20;99.90;;;;;;1069200;28;10022983;-62
2021/12/24 04:38:43;;;;;;;16.03;10.83;;;5.20;99.90;;;;;;4971686;28;20434;-63
2021/12/24 04:52:48;;;;;;;13.30;9.70;;;5.30;99.90;;;;;;4955504;28;20243;-63
2021/12/24 05:03:31;;;;;;;10.60;8.97;;;5.00;99.90;;;;;;4972619;28;20548;-63
2021/12/24 05:06:11;;;;;;;10.47;8.60;;;5.10;99.90;;;;;;4972907;28;20479;-62
2021/12/24 05:08:47;;;;;;;10.33;7.97;;;5.10;99.90;;;;;;4973996;28;20531;-63
2021/12/24 05:11:16;;;;;;;13.10;9.17;;;5.10;99.90;;;;;;4972633;28;21005;-64
2021/12/24 05:13:45;;;;;;;10.90;8.07;;;5.10;99.90;;;;;;4973076;28;20837;-63
2021/12/24 05:16:27;;;;;;;11.63;8.77;;;5.00;99.90;;;;;;4973938;28;20486;-63
2021/12/24 05:22:43;;;;;;;9.87;8.10;;;5.00;99.90;;;;;;4932687;28;20569;-62
2021/12/24 05:25:15;;;;;;;11.63;8.70;;;5.00;99.90;;;;;;4917431;29;20490;-62
2021/12/24 05:27:43;;;;;;;11.40;8.93;;;5.00;99.90;;;;;;4959076;28;20538;-63
2021/12/24 05:30:12;;;;;;;12.07;9.27;;;5.00;99.90;;;;;;4972481;28;20481;-62
2021/12/24 05:32:41;;;;;;;11.33;9.07;;;4.90;99.90;;;;;;4972161;28;20469;-62
2021/12/24 05:35:10;;;;;;;11.40;9.43;;;4.90;99.90;;;;;;4972436;28;20514;-62
2021/12/24 05:37:38;;;;;;;12.60;9.10;;;4.90;99.90;;;;;;4973276;28;20474;-62
2021/12/24 05:40:09;;;;;;;11.27;9.23;;;4.90;99.90;;;;;;4972360;28;20230;-62
2021/12/24 05:42:37;;;;;;;12.40;9.17;;;4.90;99.90;;;;;;4971775;28;20480;-62
2021/12/24 05:45:07;;;;;;;10.70;8.83;;;4.90;99.90;;;;;;4963831;28;20517;-63
2021/12/24 05:48:00;;;;;;;13.60;9.33;;;4.80;99.90;;;;;;4946854;28;20978;-63
2021/12/24 05:50:30;;;;;;;15.23;9.73;;;4.80;99.90;;;;;;4968771;28;20589;-62
2021/12/24 05:53:17;;;;;;;18.20;10.53;;;4.80;99.90;;;;;;4964270;28;20996;-63
2021/12/24 05:55:59;;;;;;;19.63;11.10;;;4.70;99.90;;;;;;4969278;28;20484;-63
2021/12/24 05:58:28;;;;;;;18.80;11.63;;;4.70;99.90;;;;;;4971714;28;20853;-63
2021/12/24 06:00:57;;;;;;;19.03;11.97;;;4.70;99.90;;;;;;4972006;28;20560;-63
2021/12/24 06:03:39;;;;;;;20.00;11.33;;;4.60;99.90;;;;;;4971634;28;20485;-62
2021/12/24 06:06:07;;;;;;;19.87;11.33;;;4.60;99.90;;;;;;4973387;28;20322;-62
2021/12/24 06:08:35;;;;;;;17.97;11.03;;;4.50;99.90;;;;;;4972943;28;20869;-63
2021/12/24 06:11:06;;;;;;;17.77;11.00;;;4.50;99.90;;;;;;4973050;28;21077;-63
2021/12/24 06:13:35;;;;;;;17.50;11.37;;;4.50;99.90;;;;;;4972845;28;20504;-63
2021/12/24 06:16:05;;;;;;;20.50;12.37;;;4.40;99.90;;;;;;4973190;28;20983;-63
2021/12/24 06:18:37;;;;;;;21.30;11.80;;;4.40;99.90;;;;;;4972693;28;20893;-63
2021/12/24 06:21:10;;;;;;;15.90;9.53;;;4.30;99.90;;;;;;4972992;28;20468;-63
2021/12/24 06:23:39;;;;;;;15.30;9.53;;;4.20;99.90;;;;;;4963507;28;20557;-63
2021/12/24 06:26:08;;;;;;;16.60;9.00;;;4.20;99.90;;;;;;4957467;28;20791;-63
2021/12/24 06:28:37;;;;;;;14.93;9.00;;;4.10;99.90;;;;;;4965574;28;20996;-63
2021/12/24 06:31:06;;;;;;;16.87;9.20;;;4.10;99.90;;;;;;4972486;28;20456;-63
2021/12/24 06:33:35;;;;;;;14.87;8.87;;;4.00;99.90;;;;;;4896310;28;20482;-63
2021/12/24 06:36:06;;;;;;;15.50;8.55;;;4.00;99.90;;;;;;1021757;28;10002025;-63
2021/12/24 06:38:35;;;;;;;12.80;8.70;;;4.00;99.90;;;;;;4970606;28;20330;-63
2021/12/24 06:41:03;;;;;;;13.60;8.07;;;4.00;99.90;;;;;;4972630;28;20477;-63
2021/12/24 06:43:33;;;;;;;13.07;7.80;;;4.00;99.90;;;;;;4972152;28;20497;-63
2021/12/24 06:46:03;;;;;;;11.27;7.47;;;4.00;99.90;;;;;;4972389;28;20495;-63
2021/12/24 06:48:31;;;;;;;12.03;7.50;;;4.00;99.90;;;;;;4972025;28;20482;-63
2021/12/24 06:50:59;;;;;;;10.07;6.90;;;3.90;99.90;;;;;;4972566;28;20493;-63
2021/12/24 06:53:27;;;;;;;11.47;7.63;;;3.90;99.90;;;;;;4969245;28;20981;-63
2021/12/24 06:55:57;;;;;;;11.80;8.30;;;4.00;99.90;;;;;;4965259;28;20476;-63
2021/12/24 06:58:25;;;;;;;11.43;7.73;;;4.00;99.90;;;;;;4970666;28;20577;-63
2021/12/24 07:00:54;;;;;;;11.40;7.40;;;3.90;99.90;;;;;;4969036;28;21052;-63
2021/12/24 07:03:24;;;;;;;12.50;7.90;;;3.90;99.90;;;;;;4970250;28;20885;-63
2021/12/24 07:05:52;;;;;;;12.00;8.17;;;3.90;99.90;;;;;;4972537;28;20467;-63
2021/12/24 07:08:20;;;;;;;10.30;7.27;;;3.90;99.90;;;;;;4972191;28;20532;-63
2021/12/24 07:10:48;;;;;;;10.47;7.47;;;3.90;99.90;;;;;;4971608;28;20872;-63
2021/12/24 07:13:18;;;;;;;11.63;7.73;;;3.90;99.90;;;;;;4972053;28;20565;-64
2021/12/24 07:15:46;;;;;;;10.53;7.77;;;3.80;99.90;;;;;;4972070;28;20965;-64
2021/12/24 07:18:15;;;;;;;11.07;7.73;;;3.80;99.90;;;;;;4972425;28;20568;-63
2021/12/24 07:20:43;;;;;;;12.70;7.90;;;3.70;99.90;;;;;;4971997;28;20488;-63
2021/12/24 07:23:11;;;;;;;10.83;7.77;;;3.70;99.90;;;;;;4963503;28;20581;-63
2021/12/24 07:25:39;;;;;;;12.33;8.10;;;3.60;99.90;;;;;;4964357;28;20472;-63
2021/12/24 07:28:07;;;;;;;10.63;7.90;;;3.60;99.90;;;;;;4971392;28;20466;-63
2021/12/24 07:30:37;;;;;;;10.37;7.97;;;3.60;99.90;;;;;;4971166;28;20493;-63
2021/12/24 07:33:05;;;;;;;11.43;8.07;;;3.60;99.90;;;;;;4971419;28;20473;-63
2021/12/24 07:35:33;;;;;;;12.93;9.10;;;3.50;99.90;;;;;;4971193;28;20562;-63
2021/12/24 07:38:01;;;;;;;12.83;8.60;;;3.50;99.90;;;;;;4968859;28;21058;-63
2021/12/24 07:40:29;;;;;;;13.43;8.90;;;3.50;99.90;;;;;;4969714;28;20480;-63
2021/12/24 07:42:57;;;;;;;11.17;8.63;;;3.40;99.90;;;;;;4971233;28;20474;-63
2021/12/24 07:45:26;;;;;;;13.07;9.07;;;3.40;99.90;;;;;;4969635;28;20531;-63
2021/12/24 07:48:07;;;;;;;11.03;8.17;;;3.30;99.90;;;;;;4971286;28;20839;-63
2021/12/24 07:53:18;;;;;;;13.70;8.60;;;3.30;99.90;;;;;;4941848;28;20560;-64
2021/12/24 07:55:47;;;;;;;11.73;8.27;;;3.30;99.90;;;;;;4964635;28;20485;-64
2021/12/24 07:58:16;;;;;;;11.50;8.30;;;3.20;99.90;;;;;;4972072;28;20481;-64
2021/12/24 08:00:46;;;;;;;10.63;7.87;;;3.20;99.90;;;;;;4970576;28;20543;-63
2021/12/24 08:03:15;;;;;;;11.63;8.60;;;3.20;99.90;;;;;;4971510;28;20561;-64
2021/12/24 08:05:46;;;;;;;11.30;8.10;;;3.20;99.90;;;;;;4971636;28;20487;-63
2021/12/24 08:08:14;;;;;;;11.67;8.70;;;3.20;99.90;;;;;;4971642;28;20482;-63
2021/12/24 08:10:42;;;;;;;11.30;8.17;;;3.10;99.90;;;;;;4970745;28;20480;-63
2021/12/24 08:13:10;;;;;;;11.97;9.07;;;3.10;99.90;;;;;;4967024;28;20465;-63
2021/12/24 08:15:39;;;;;;;10.90;8.00;;;3.10;99.90;;;;;;4962299;28;20462;-63
2021/12/24 08:18:10;;;;;;;11.10;8.90;;;3.10;99.90;;;;;;4985733;28;20536;-63
2021/12/24 08:20:40;;;;;;;11.97;9.03;;;3.10;99.90;;;;;;4971514;28;20460;-64
2021/12/24 08:23:08;;;;;;;10.60;7.97;;;3.10;99.90;;;;;;4970287;28;20476;-64
2021/12/24 08:25:36;;;;;;;12.07;8.90;;;3.10;99.90;;;;;;4974688;28;21023;-63
2021/12/24 08:28:04;;;;;;;12.87;9.47;;;3.10;99.90;;;;;;4974934;28;20572;-63
2021/12/24 08:30:37;;;;;;;11.90;9.00;;;3.00;99.90;;;;;;4974716;28;20510;-63
2021/12/24 08:33:06;;;;;;;13.73;8.87;;;3.00;99.90;;;;;;4955676;28;20465;-65
2021/12/24 08:35:41;;;;;;;9.95;8.18;;;3.00;99.90;;;;;;1496741;28;10023931;-64
2021/12/24 08:38:09;;;;;;;13.20;8.77;;;3.00;99.90;;;;;;3941263;28;10001138;-63
2021/12/24 08:40:37;;;;;;;11.77;8.53;;;3.00;99.90;;;;;;4974554;28;20461;-63
2021/12/24 08:43:06;;;;;;;11.67;9.37;;;3.00;99.90;;;;;;4974099;28;20575;-63
2021/12/24 08:45:34;;;;;;;11.80;8.93;;;3.00;99.90;;;;;;4959200;28;20914;-63
2021/12/24 08:48:02;;;;;;;10.77;8.37;;;3.00;99.90;;;;;;4955036;28;21009;-63
2021/12/24 08:50:30;;;;;;;12.37;8.53;;;3.00;99.90;;;;;;4947090;28;20623;-63
2021/12/24 08:52:59;;;;;;;11.50;8.47;;;3.00;99.90;;;;;;4956566;28;20497;-63
2021/12/24 08:55:28;;;;;;;10.90;8.00;;;3.00;99.90;;;;;;4971568;28;20472;-63
2021/12/24 08:57:56;;;;;;;13.43;8.53;;;3.00;99.90;;;;;;4974279;28;20482;-63
2021/12/24 09:00:24;;;;;;;13.47;8.80;;;3.00;99.90;;;;;;4968959;28;20511;-63
2021/12/24 09:02:52;;;;;;;11.67;8.57;;;3.00;99.90;;;;;;4948515;28;20485;-63
2021/12/24 09:05:21;;;;;;;11.83;9.00;;;2.90;99.90;;;;;;4955075;28;20473;-63
2021/12/24 09:07:49;;;;;;;12.60;8.80;;;3.00;99.90;;;;;;4962656;28;20787;-63
2021/12/24 09:10:18;;;;;;;11.87;9.67;;;3.00;99.90;;;;;;4973911;28;20478;-63
2021/12/24 09:12:48;;;;;;;11.27;8.67;;;2.90;99.90;;;;;;4971804;28;20537;-64
2021/12/24 09:15:18;;;;;;;13.03;8.63;;;2.90;99.90;;;;;;4966163;28;20546;-63
2021/12/24 09:17:47;;;;;;;11.07;8.20;;;2.80;99.90;;;;;;4973179;28;21098;-64
2021/12/24 09:20:22;;;;;;;11.67;9.00;;;2.70;99.90;;;;;;4974438;28;20484;-63
2021/12/24 09:22:50;;;;;;;11.00;8.57;;;2.70;99.90;;;;;;4972774;28;20570;-63
2021/12/24 09:25:22;;;;;;;11.23;8.70;;;2.70;99.90;;;;;;4973800;28;20908;-64
2021/12/24 09:27:50;;;;;;;12.40;9.40;;;2.60;99.90;;;;;;4973569;28;20914;-63
2021/12/24 09:30:19;;;;;;;11.30;8.47;;;2.60;99.90;;;;;;4973369;28;21008;-63
2021/12/24 09:32:47;;;;;;;11.93;8.80;;;2.60;99.90;;;;;;4972355;28;20476;-63
2021/12/24 09:35:16;;;;;;;11.90;8.27;;;2.50;99.90;;;;;;4972686;28;21009;-63
2021/12/24 09:37:44;;;;;;;10.90;8.87;;;2.50;99.90;;;;;;4964908;28;20839;-63
2021/12/24 09:40:14;;;;;;;11.77;8.53;;;2.50;99.90;;;;;;4973373;28;20483;-64
2021/12/24 09:42:44;;;;;;;11.77;8.73;;;2.40;99.90;;;;;;4972966;28;20982;-63
2021/12/24 09:45:13;;;;;;;10.47;8.63;;;2.40;99.90;;;;;;4973343;28;20479;-64
2021/12/24 09:47:42;;;;;;;11.43;8.83;;;2.40;99.90;;;;;;4973220;28;20479;-63
2021/12/24 09:50:13;;;;;;;11.67;9.40;;;2.40;99.90;;;;;;4965954;28;20570;-64
2021/12/24 09:52:44;;;;;;;11.63;9.33;;;2.40;99.90;;;;;;4965479;28;20495;-64
2021/12/24 09:55:16;;;;;;;12.87;9.90;;;2.40;99.90;;;;;;4961204;28;20536;-64
2021/12/24 09:57:47;;;;;;;13.43;10.23;;;2.30;99.90;;;;;;4966367;28;20511;-64
2021/12/24 10:00:20;;;;;;;13.73;10.80;;;2.30;99.90;;;;;;4962990;28;20517;-64
2021/12/24 10:02:52;;;;;;;15.87;11.17;;;2.30;99.90;;;;;;4965534;28;20503;-64
2021/12/24 10:05:39;;;;;;;14.17;10.90;;;2.30;99.90;;;;;;4967142;28;20493;-64
2021/12/24 10:08:10;;;;;;;15.47;10.63;;;2.20;99.90;;;;;;4966754;28;21065;-64
2021/12/24 10:10:42;;;;;;;15.17;11.43;;;2.20;99.90;;;;;;4964091;28;20553;-64
2021/12/24 10:13:31;;;;;;;15.30;11.47;;;2.40;99.90;;;;;;4966939;28;20505;-63
2021/12/24 10:16:04;;;;;;;14.47;10.77;;;2.30;99.90;;;;;;4966356;28;20527;-64
2021/12/24 10:18:40;;;;;;;15.77;10.93;;;2.30;99.90;;;;;;4965673;28;20522;-64
2021/12/24 10:21:12;;;;;;;16.20;12.10;;;2.20;99.90;;;;;;4965328;28;20496;-64
2021/12/24 10:23:49;;;;;;;14.63;11.63;;;2.20;99.90;;;;;;4966080;28;20479;-63
2021/12/24 10:26:33;;;;;;;15.00;11.43;;;2.20;99.90;;;;;;4964953;28;20840;-64
2021/12/24 10:29:09;;;;;;;14.87;11.50;;;2.20;99.90;;;;;;4965431;28;21010;-64
2021/12/24 10:31:43;;;;;;;15.87;11.23;;;2.20;99.90;;;;;;4966304;28;20596;-64
2021/12/24 10:34:25;;;;;;;16.12;11.47;;;2.20;99.90;;;;;;4858069;28;10001044;-64
2021/12/24 10:37:22;;;;;;;15.77;11.73;;;2.20;99.90;;;;;;1367481;28;10002051;-64
2021/12/24 10:39:54;;;;;;;17.17;11.67;;;2.30;99.90;;;;;;4948207;28;20248;-64
2021/12/24 10:42:29;;;;;;;17.23;12.50;;;2.40;99.90;;;;;;4966210;28;20503;-64
2021/12/24 10:45:04;;;;;;;17.73;12.70;;;2.50;99.90;;;;;;4963952;28;20780;-64
2021/12/24 10:47:41;;;;;;;15.73;11.60;;;2.40;99.90;;;;;;4966223;28;20455;-63
2021/12/24 10:50:27;;;;;;;15.13;11.73;;;2.50;99.90;;;;;;4963651;28;20484;-64
2021/12/24 10:53:13;;;;;;;17.83;12.40;;;2.60;99.90;;;;;;4950842;28;20558;-64
2021/12/24 10:55:47;;;;;;;16.37;12.57;;;2.60;99.90;;;;;;4966451;28;20837;-63
2021/12/24 10:58:19;;;;;;;18.57;13.00;;;2.60;99.90;;;;;;4965985;28;20498;-64
2021/12/24 11:00:54;;;;;;;16.60;12.27;;;2.60;99.90;;;;;;4963022;28;20494;-64
2021/12/24 11:03:25;;;;;;;17.73;12.73;;;2.60;99.90;;;;;;4964538;28;21037;-64
2021/12/24 11:06:04;;;;;;;16.30;12.37;;;2.60;99.90;;;;;;4965639;28;20483;-63
2021/12/24 11:08:33;;;;;;;16.47;12.20;;;2.70;99.90;;;;;;4965152;28;21990;-63
2021/12/24 11:11:06;;;;;;;17.33;12.90;;;2.70;99.90;;;;;;4963496;28;20502;-63
2021/12/24 11:13:38;;;;;;;14.53;11.97;;;2.60;99.90;;;;;;4965208;28;20521;-64
2021/12/24 11:16:09;;;;;;;18.70;12.10;;;2.60;99.90;;;;;;4966745;28;20492;-63
2021/12/24 11:18:40;;;;;;;15.60;12.00;;;2.60;99.90;;;;;;4966405;28;20490;-65
2021/12/24 11:21:11;;;;;;;16.03;12.17;;;2.60;99.90;;;;;;4964363;28;20542;-64
2021/12/24 11:23:41;;;;;;;16.03;11.40;;;2.60;99.90;;;;;;4966032;28;20467;-63
2021/12/24 11:26:11;;;;;;;15.13;11.90;;;2.60;99.90;;;;;;4967490;28;20485;-63
2021/12/24 11:28:41;;;;;;;15.10;12.03;;;2.70;99.90;;;;;;4968281;28;20539;-63
2021/12/24 11:31:12;;;;;;;15.07;11.93;;;2.70;99.90;;;;;;4970719;28;20462;-63
2021/12/24 11:33:43;;;;;;;14.57;11.70;;;2.70;99.90;;;;;;4956716;28;20542;-63
2021/12/24 11:36:14;;;;;;;14.27;11.47;;;2.70;99.90;;;;;;4971775;28;20464;-63
2021/12/24 11:38:45;;;;;;;15.93;11.83;;;2.70;99.90;;;;;;4974513;28;21023;-63
2021/12/24 11:41:15;;;;;;;14.37;11.60;;;2.80;99.90;;;;;;4972007;28;20476;-63
2021/12/24 11:43:46;;;;;;;16.90;13.27;;;2.90;99.90;;;;;;4971771;28;20511;-63
2021/12/24 11:46:18;;;;;;;17.37;12.70;;;2.80;99.90;;;;;;4972822;28;20492;-63
2021/12/24 11:48:49;;;;;;;16.67;12.23;;;2.90;99.90;;;;;;4974654;28;20552;-64
2021/12/24 11:51:24;;;;;;;18.43;12.83;;;2.90;99.90;;;;;;4959537;28;20479;-63
2021/12/24 11:53:55;;;;;;;17.27;12.70;;;2.90;99.90;;;;;;4975450;28;20478;-63
2021/12/24 11:56:24;;;;;;;17.80;12.77;;;2.90;99.90;;;;;;4975044;28;21024;-63
2021/12/24 11:58:55;;;;;;;17.47;13.00;;;2.80;99.90;;;;;;4975102;28;20837;-63
2021/12/24 12:01:27;;;;;;;17.53;12.13;;;2.90;99.90;;;;;;4975019;28;20556;-63
2021/12/24 12:03:58;;;;;;;20.10;14.20;;;3.10;99.90;;;;;;4972753;28;20480;-63
2021/12/24 12:06:34;;;;;;;21.07;15.03;;;3.10;99.90;;;;;;4974768;28;20497;-63
2021/12/24 12:09:07;;;;;;;17.93;13.37;;;3.00;99.90;;;;;;4973437;28;20485;-63
2021/12/24 12:11:39;;;;;;;20.60;14.03;;;3.00;99.90;;;;;;4972285;28;20480;-63
2021/12/24 12:14:23;;;;;;;19.30;13.70;;;3.00;99.90;;;;;;4974189;28;20546;-64
2021/12/24 12:16:54;;;;;;;24.53;15.23;;;3.00;99.90;;;;;;4973343;28;20562;-64
2021/12/24 12:19:28;;;;;;;21.87;14.53;;;3.10;99.90;;;;;;4976435;28;20561;-63
2021/12/24 12:22:16;;;;;;;18.63;13.50;;;3.10;99.90;;;;;;4961606;28;20810;-63
2021/12/24 12:27:39;;;;;;;19.30;14.37;;;3.00;99.90;;;;;;4974082;28;21069;-63
2021/12/24 12:30:26;;;;;;;19.13;13.73;;;3.00;99.90;;;;;;4975029;28;20537;-63
2021/12/24 12:33:07;;;;;;;19.43;14.37;;;3.00;99.90;;;;;;4974657;28;20477;-63
2021/12/24 12:35:39;;;;;;;17.51;12.65;;;3.00;99.90;;;;;;965124;28;10001899;-63
2021/12/24 12:38:33;;;;;;;20.57;14.37;;;3.10;99.90;;;;;;4987307;28;20365;-63
2021/12/24 12:41:26;;;;;;;19.30;14.20;;;3.10;99.90;;;;;;4974697;28;20487;-63
2021/12/24 12:43:55;;;;;;;19.87;14.63;;;3.10;99.90;;;;;;4972749;28;20481;-63
2021/12/24 12:46:27;;;;;;;19.77;13.20;;;3.10;99.90;;;;;;4974800;28;20488;-63
2021/12/24 12:48:57;;;;;;;19.80;14.17;;;3.10;99.90;;;;;;4960247;28;20892;-63
2021/12/24 12:52:00;;;;;;;20.33;14.70;;;3.20;99.90;;;;;;4963571;28;20519;-63
2021/12/24 12:54:37;;;;;;;17.63;13.63;;;3.10;99.90;;;;;;4973832;28;21059;-63
2021/12/24 12:57:33;;;;;;;20.38;18.02;;;3.10;99.90;;;;;;4973722;28;20997;-63
2021/12/24 13:00:18;;;;;;;19.40;14.37;;;3.10;99.90;;;;;;4968976;28;20240;-63
2021/12/24 13:03:12;;;;;;;17.97;13.70;;;3.10;99.90;;;;;;4962243;28;20474;-63
2021/12/24 13:06:13;;;;;;;17.43;13.37;;;3.10;99.90;;;;;;4970916;28;20829;-63
2021/12/24 13:08:41;;;;;;;19.27;14.17;;;3.10;99.90;;;;;;4967676;28;20544;-62
2021/12/24 13:11:13;;;;;;;17.90;13.47;;;3.10;99.90;;;;;;4972169;28;20470;-63
2021/12/24 13:14:02;;;;;;;17.40;13.63;;;3.10;99.90;;;;;;4944540;28;21023;-62
2021/12/24 13:16:35;;;;;;;18.97;13.90;;;3.10;99.90;;;;;;4950006;28;20507;-63
2021/12/24 13:19:25;;;;;;;18.93;13.77;;;3.10;99.90;;;;;;4959894;28;20840;-62
2021/12/24 13:24:50;;;;;;;17.73;13.83;;;3.10;99.90;;;;;;4975056;28;20581;-63
2021/12/24 13:27:19;;;;;;;18.60;14.23;;;3.10;99.90;;;;;;4968766;28;20472;-62
2021/12/24 13:29:47;;;;;;;17.87;13.53;;;3.10;99.90;;;;;;4973781;28;20472;-62
2021/12/24 13:32:16;;;;;;;20.13;15.03;;;3.10;99.90;;;;;;4972203;28;21033;-62
2021/12/24 13:34:44;;;;;;;19.60;14.07;;;3.10;99.90;;;;;;4972814;28;20484;-62
2021/12/24 13:37:16;;;;;;;16.90;13.67;;;3.10;99.90;;;;;;4973761;28;20475;-62
2021/12/24 13:39:49;;;;;;;18.70;14.60;;;3.10;99.90;;;;;;4973917;28;20815;-63
2021/12/24 13:42:20;;;;;;;19.07;13.63;;;3.10;99.90;;;;;;4973435;28;20484;-62
2021/12/24 13:44:49;;;;;;;19.47;13.97;;;3.10;99.90;;;;;;4966406;28;20554;-62
2021/12/24 13:47:27;;;;;;;18.70;14.83;;;3.30;99.90;;;;;;4963745;28;20491;-62
2021/12/24 13:50:27;;;;;;;20.90;15.37;;;3.30;99.90;;;;;;4973790;28;20483;-62
2021/12/24 13:55:45;;;;;;;15.73;11.93;;;3.10;99.90;;;;;;4957946;28;20486;-62
2021/12/24 13:58:16;;;;;;;16.77;12.37;;;2.70;99.90;;;;;;4973568;28;21006;-62
2021/12/24 14:00:48;;;;;;;17.33;13.03;;;2.60;99.90;;;;;;4973528;28;20576;-62
2021/12/24 14:03:17;;;;;;;18.30;12.67;;;2.50;99.90;;;;;;4973143;28;20482;-62
2021/12/24 14:05:46;;;;;;;20.13;12.37;;;2.50;99.90;;;;;;4973517;28;20475;-62
2021/12/24 14:08:19;;;;;;;20.30;12.73;;;2.40;99.90;;;;;;4973245;28;20482;-62
2021/12/24 14:10:50;;;;;;;20.00;12.50;;;2.30;99.90;;;;;;4972635;28;20479;-62
2021/12/24 14:13:25;;;;;;;22.20;14.00;;;2.20;99.90;;;;;;4973134;28;20473;-62
2021/12/24 14:16:08;;;;;;;21.83;14.40;;;2.30;99.90;;;;;;4958214;28;20562;-62
2021/12/24 14:18:48;;;;;;;21.53;13.63;;;2.20;99.90;;;;;;4957485;28;20459;-62
2021/12/24 14:21:47;;;;;;;20.53;12.93;;;2.20;99.90;;;;;;4973099;28;20494;-62
2021/12/24 14:24:20;;;;;;;20.63;12.87;;;2.30;99.90;;;;;;4972823;28;20485;-62
2021/12/24 14:26:52;;;;;;;24.93;12.70;;;2.30;99.90;;;;;;4972592;28;20545;-62
2021/12/24 14:29:36;;;;;;;22.73;13.70;;;2.30;99.90;;;;;;4972718;28;20531;-62